Country
Station

 

Weather  for  Bodo Vi  -  Norway    Norway

  
-1 °C (30 °F)
    
 
 

Current METAR for Bodo Vi is :

ENBO 111920Z 08010KT 9999 FEW050 M01/M01 Q1027 NOSIG

 

This is a report for Bodo Vi - Norway.
 
The report was made 7 minutes ago, at 19:20 UTC .
The wind was blowing at a speed of 5.1 meters per second (11.5 miles per hour) from east (080°).
 
The temperature was -1 °C (30 °F), with a dew-point at -1 °C (30 °F).
The temperature felt like -6 °C (20 °F).
 
The atmospheric pressure was 1027 hPa (30.33 inHg).
The relative humidity was 100.0%.
 
There were a few clouds at a height of 1524 meters (5000 feet).
 
The overall visibility was greater than 10 kilometers (6.2 miles).
 

 
 
 
 

Country :   A   B   C   D   E   F   G   H   I   J   K   L   M   N   O   P   Q   R   S   T   U   V   W   Y   Z

 

Site Info  |  Disclaimer  |  Credits  |  Privacy
Contact us  |  Add to favorites
© 2013-2018 METARs - All rights reserved